createdAt,value
2017-11-24T00:00:28.006Z,95.89
2017-11-24T00:01:03.516Z,95.60
2017-11-24T00:01:38.626Z,95.70
2017-11-24T00:02:13.816Z,95.60
2017-11-24T00:02:49.194Z,95.41
2017-11-24T00:03:24.401Z,95.32
2017-11-24T00:03:59.615Z,95.03
2017-11-24T00:04:35.025Z,94.74
2017-11-24T00:05:10.301Z,94.46
2017-11-24T00:05:45.716Z,94.93
2017-11-24T00:06:21.099Z,94.93
2017-11-24T00:06:56.313Z,95.70
2017-11-24T00:07:31.610Z,94.74
2017-11-24T00:08:07.121Z,94.84
2017-11-24T00:08:42.297Z,94.56
2017-11-24T00:09:17.731Z,94.65
2017-11-24T00:09:53.215Z,95.51
2017-11-24T00:10:28.638Z,95.51
2017-11-24T00:11:04.207Z,95.32
2017-11-24T00:11:39.210Z,95.22
2017-11-24T00:12:14.793Z,94.74
2017-11-24T00:12:50.304Z,94.74
2017-11-24T00:13:25.594Z,95.22
2017-11-24T00:14:01.310Z,96.26
2017-11-24T00:14:36.523Z,95.60
2017-11-24T00:15:11.832Z,95.12
2017-11-24T00:15:46.911Z,96.98
2017-11-24T00:16:22.232Z,96.70
2017-11-24T00:16:57.623Z,95.98
2017-11-24T00:17:33.029Z,96.12
2017-11-24T00:18:08.113Z,94.98
2017-11-24T00:18:43.322Z,95.56
2017-11-24T00:19:18.801Z,94.70
2017-11-24T00:19:54.037Z,94.98
2017-11-24T00:20:29.426Z,94.79
2017-11-24T00:21:04.650Z,94.22
2017-11-24T00:21:39.926Z,94.89
2017-11-24T00:22:14.941Z,95.08
2017-11-24T00:22:50.425Z,94.70
2017-11-24T00:23:25.630Z,94.60
2017-11-24T00:24:00.811Z,94.32
2017-11-24T00:24:36.126Z,94.13
2017-11-24T00:25:12.148Z,94.13
2017-11-24T00:25:47.762Z,94.60
2017-11-24T00:26:22.847Z,94.51
2017-11-24T00:26:57.962Z,94.42
2017-11-24T00:27:33.656Z,94.70
2017-11-24T00:28:09.069Z,94.51
2017-11-24T00:28:43.949Z,94.98
2017-11-24T00:29:19.072Z,95.27
2017-11-24T00:29:54.445Z,95.08
2017-11-24T00:30:30.085Z,95.27
2017-11-24T00:31:05.463Z,95.46
2017-11-24T00:31:40.576Z,95.08
2017-11-24T00:32:15.752Z,96.51
2017-11-24T00:32:51.270Z,96.89
2017-11-24T00:33:29.573Z,96.98
2017-11-24T00:34:01.310Z,96.03
2017-11-24T00:34:36.592Z,95.79
2017-11-24T00:35:12.098Z,95.84
2017-11-24T00:35:47.409Z,95.27
2017-11-24T00:36:22.716Z,95.27
2017-11-24T00:36:58.103Z,95.36
2017-11-24T00:37:33.310Z,95.17
2017-11-24T00:38:08.393Z,95.17
2017-11-24T00:38:43.710Z,95.65
2017-11-24T00:39:18.892Z,95.75
2017-11-24T00:39:54.505Z,95.08
2017-11-24T00:40:29.816Z,94.13
2017-11-24T00:41:04.952Z,94.42
2017-11-24T00:41:40.031Z,94.79
2017-11-24T00:42:15.449Z,94.51
2017-11-24T00:42:50.932Z,93.94
2017-11-24T00:43:26.438Z,94.42
2017-11-24T00:44:01.723Z,94.79
2017-11-24T00:44:37.470Z,94.79
2017-11-24T00:45:12.853Z,94.32
2017-11-24T00:45:48.062Z,94.22
2017-11-24T00:46:23.168Z,94.60
2017-11-24T00:46:58.283Z,94.79
2017-11-24T00:47:33.466Z,93.94
2017-11-24T00:48:08.986Z,94.32
2017-11-24T00:48:44.264Z,94.51
2017-11-24T00:49:19.506Z,94.42
2017-11-24T00:49:54.654Z,93.94
2017-11-24T00:50:29.970Z,94.51
2017-11-24T00:51:05.261Z,94.51
2017-11-24T00:51:40.605Z,94.32
2017-11-24T00:52:15.987Z,94.51
2017-11-24T00:52:51.696Z,94.22
2017-11-24T00:53:26.986Z,94.13
2017-11-24T00:54:01.905Z,93.84
2017-11-24T00:54:37.489Z,93.55
2017-11-24T00:55:12.603Z,94.32
2017-11-24T00:55:47.779Z,94.51
2017-11-24T00:56:23.392Z,94.03
2017-11-24T00:56:59.202Z,94.42
2017-11-24T00:57:34.512Z,94.32
2017-11-24T00:58:09.700Z,94.22
2017-11-24T00:58:45.308Z,94.03
2017-11-24T00:59:20.691Z,94.22
2017-11-24T00:59:56.005Z,93.65
2017-11-24T01:00:31.101Z,93.74
2017-11-24T01:01:06.796Z,93.65
2017-11-24T01:01:42.476Z,93.55
2017-11-24T01:02:17.716Z,94.03
2017-11-24T01:02:53.497Z,94.32
2017-11-24T01:03:28.918Z,94.22
2017-11-24T01:04:04.196Z,94.03
2017-11-24T01:04:39.420Z,94.13
2017-11-24T01:05:14.598Z,94.42
2017-11-24T01:05:49.712Z,94.13
2017-11-24T01:06:24.997Z,94.13
2017-11-24T01:07:00.511Z,94.51
2017-11-24T01:07:36.122Z,93.84
2017-11-24T01:08:11.437Z,94.51
2017-11-24T01:08:46.854Z,93.84
2017-11-24T01:09:22.620Z,93.74
2017-11-24T01:09:58.103Z,94.32
2017-11-24T01:10:33.622Z,94.98
2017-11-24T01:11:08.705Z,94.60
2017-11-24T01:11:44.029Z,94.42
2017-11-24T01:12:19.521Z,94.32
2017-11-24T01:12:54.864Z,94.42
2017-11-24T01:13:30.241Z,94.42
2017-11-24T01:14:05.451Z,94.51
2017-11-24T01:14:40.632Z,94.13
2017-11-24T01:15:15.969Z,94.32
2017-11-24T01:15:51.136Z,94.51
2017-11-24T01:16:26.244Z,93.94
2017-11-24T01:17:01.579Z,94.51
2017-11-24T01:17:36.684Z,95.08
2017-11-24T01:18:12.314Z,95.56
2017-11-24T01:18:47.820Z,95.08
2017-11-24T01:19:23.182Z,94.32
2017-11-24T01:19:58.899Z,94.98
2017-11-24T01:20:34.380Z,95.36
2017-11-24T01:21:09.516Z,95.65
2017-11-24T01:21:44.492Z,95.17
2017-11-24T01:22:19.804Z,95.36
2017-11-24T01:22:54.981Z,96.12
2017-11-24T01:23:30.728Z,95.65
2017-11-24T01:24:05.908Z,94.70
2017-11-24T01:24:41.114Z,95.65
2017-11-24T01:25:16.406Z,95.27
2017-11-24T01:25:51.514Z,95.94
2017-11-24T01:26:26.998Z,96.03
2017-11-24T01:27:02.005Z,96.22
2017-11-24T01:27:36.985Z,95.56
2017-11-24T01:28:12.207Z,94.98
2017-11-24T01:28:47.516Z,94.51
2017-11-24T01:29:22.940Z,94.70
2017-11-24T01:29:58.949Z,94.98
2017-11-24T01:30:35.463Z,95.36
2017-11-24T01:31:10.646Z,94.42
2017-11-24T01:31:45.793Z,94.98
2017-11-24T01:32:20.845Z,94.79
2017-11-24T01:32:56.246Z,94.89
2017-11-24T01:33:31.636Z,95.65
2017-11-24T01:34:06.971Z,95.27
2017-11-24T01:34:42.166Z,95.36
2017-11-24T01:35:18.658Z,95.08
2017-11-24T01:35:53.842Z,95.27
2017-11-24T01:36:29.058Z,95.84
2017-11-24T01:37:04.136Z,95.36
2017-11-24T01:37:39.252Z,95.89
2017-11-24T01:38:14.432Z,94.98
2017-11-24T01:38:49.769Z,95.46
2017-11-24T01:39:25.091Z,95.27
2017-11-24T01:40:00.401Z,95.36
2017-11-24T01:40:35.392Z,95.27
2017-11-24T01:41:10.708Z,95.08
2017-11-24T01:41:45.893Z,95.08
2017-11-24T01:42:21.197Z,95.56
2017-11-24T01:42:56.381Z,95.94
2017-11-24T01:43:31.597Z,96.41
2017-11-24T01:44:07.080Z,96.31
2017-11-24T01:44:42.137Z,95.65
2017-11-24T01:45:17.613Z,96.41
2017-11-24T01:45:52.816Z,96.60
2017-11-24T01:46:28.095Z,97.17
2017-11-24T01:47:03.605Z,97.17
2017-11-24T01:47:38.994Z,95.94
2017-11-24T01:48:14.520Z,96.12
2017-11-24T01:48:49.703Z,96.89
2017-11-24T01:49:25.050Z,96.03
2017-11-24T01:50:00.232Z,95.84
2017-11-24T01:50:35.641Z,96.22
2017-11-24T01:51:10.831Z,96.60
2017-11-24T01:51:46.249Z,95.94
2017-11-24T01:52:21.436Z,95.75
2017-11-24T01:52:56.457Z,95.65
2017-11-24T01:53:32.036Z,95.94
2017-11-24T01:54:07.354Z,95.75
2017-11-24T01:54:42.355Z,95.75
2017-11-24T01:55:17.765Z,95.84
2017-11-24T01:55:53.048Z,95.75
2017-11-24T01:56:28.262Z,96.12
2017-11-24T01:57:03.554Z,96.31
2017-11-24T01:57:38.469Z,95.46
2017-11-24T01:58:13.962Z,96.41
2017-11-24T01:58:49.206Z,96.22
2017-11-24T01:59:24.573Z,95.94
2017-11-24T02:00:00.017Z,95.75
2017-11-24T02:00:35.927Z,95.75
2017-11-24T02:01:11.509Z,96.12
2017-11-24T02:01:46.593Z,96.51
2017-11-24T02:02:22.107Z,96.41
2017-11-24T02:02:57.592Z,95.94
2017-11-24T02:03:32.901Z,95.56
2017-11-24T02:04:08.183Z,95.84
2017-11-24T02:04:43.638Z,96.31
2017-11-24T02:05:18.829Z,96.22
2017-11-24T02:05:54.037Z,95.84
2017-11-24T02:06:29.221Z,96.22
2017-11-24T02:07:04.526Z,96.03
2017-11-24T02:07:39.814Z,95.65
2017-11-24T02:08:15.025Z,95.94
2017-11-24T02:08:50.321Z,96.12
2017-11-24T02:09:25.924Z,96.41
2017-11-24T02:10:01.241Z,96.22
2017-11-24T02:10:36.545Z,96.22
2017-11-24T02:11:11.860Z,96.41
2017-11-24T02:11:47.067Z,96.41
2017-11-24T02:12:22.549Z,96.70
2017-11-24T02:12:58.063Z,96.60
2017-11-24T02:13:33.351Z,97.27
2017-11-24T02:14:08.663Z,96.70
2017-11-24T02:14:43.877Z,96.22
2017-11-24T02:15:19.389Z,96.51
2017-11-24T02:15:54.471Z,96.12
2017-11-24T02:16:29.781Z,96.41
2017-11-24T02:17:04.866Z,96.22
2017-11-24T02:17:40.381Z,96.12
2017-11-24T02:18:15.663Z,96.22
2017-11-24T02:18:51.100Z,96.22
2017-11-24T02:19:26.981Z,96.12
2017-11-24T02:20:02.418Z,96.79
2017-11-24T02:20:37.604Z,96.70
2017-11-24T02:21:12.926Z,97.08
2017-11-24T02:21:48.404Z,97.65
2017-11-24T02:22:23.714Z,97.08
2017-11-24T02:22:58.803Z,97.17
2017-11-24T02:23:34.110Z,96.60
2017-11-24T02:24:09.492Z,97.17
2017-11-24T02:24:44.601Z,96.89
2017-11-24T02:25:20.054Z,97.17
2017-11-24T02:25:55.345Z,96.89
2017-11-24T02:26:30.527Z,97.36
2017-11-24T02:27:05.645Z,96.89
2017-11-24T02:27:40.726Z,97.46
2017-11-24T02:28:16.231Z,97.17
2017-11-24T02:28:51.638Z,96.70
2017-11-24T02:29:26.833Z,97.27
2017-11-24T02:30:01.751Z,96.79
2017-11-24T02:30:37.168Z,96.79
2017-11-24T02:31:12.557Z,96.79
2017-11-24T02:31:48.100Z,96.60
2017-11-24T02:32:23.376Z,96.70
2017-11-24T02:32:58.690Z,96.60
2017-11-24T02:33:33.975Z,97.27
2017-11-24T02:34:09.288Z,98.13
2017-11-24T02:34:44.871Z,98.32
2017-11-24T02:35:20.715Z,98.32
2017-11-24T02:35:56.096Z,97.17
2017-11-24T02:36:31.408Z,96.79
2017-11-24T02:37:06.896Z,96.98
2017-11-24T02:37:42.305Z,97.08
2017-11-24T02:38:17.691Z,96.98
2017-11-24T02:38:53.199Z,97.55
2017-11-24T02:39:28.379Z,97.17
2017-11-24T02:40:03.919Z,97.17
2017-11-24T02:40:39.206Z,96.79
2017-11-24T02:41:14.217Z,97.17
2017-11-24T02:41:49.203Z,96.03
2017-11-24T02:42:24.416Z,96.41
2017-11-24T02:42:59.801Z,96.98
2017-11-24T02:43:35.227Z,96.70
2017-11-24T02:44:10.499Z,97.17
2017-11-24T02:44:45.821Z,96.60
2017-11-24T02:45:21.123Z,96.98
2017-11-24T02:45:56.433Z,96.60
2017-11-24T02:46:31.824Z,96.31
2017-11-24T02:47:07.133Z,97.13
2017-11-24T02:47:42.620Z,96.79
2017-11-24T02:48:17.845Z,96.60
2017-11-24T02:48:53.127Z,95.84
2017-11-24T02:49:28.436Z,97.08
2017-11-24T02:50:03.521Z,96.98
2017-11-24T02:50:39.069Z,96.84
2017-11-24T02:51:14.547Z,97.27
2017-11-24T02:51:49.865Z,97.03
2017-11-24T02:52:24.949Z,96.98
2017-11-24T02:53:00.061Z,97.27
2017-11-24T02:53:35.440Z,96.51
2017-11-24T02:54:10.649Z,96.51
2017-11-24T02:54:46.034Z,96.79
2017-11-24T02:55:21.370Z,96.03
2017-11-24T02:55:56.959Z,96.98
2017-11-24T02:56:32.472Z,97.17
2017-11-24T02:57:07.658Z,97.17
2017-11-24T02:57:42.674Z,97.46
2017-11-24T02:58:17.966Z,97.17
2017-11-24T02:58:52.884Z,97.27
2017-11-24T02:59:28.588Z,96.98
2017-11-24T03:00:04.007Z,97.84
2017-11-24T03:00:39.725Z,98.22
2017-11-24T03:01:15.135Z,98.13
2017-11-24T03:01:50.527Z,98.60
2017-11-24T03:02:25.937Z,98.32
2017-11-24T03:03:01.122Z,98.03
2017-11-24T03:03:36.140Z,97.36
2017-11-24T03:04:11.424Z,97.93
2017-11-24T03:04:46.742Z,97.46
2017-11-24T03:05:22.050Z,97.46
2017-11-24T03:05:57.259Z,97.17
2017-11-24T03:06:32.847Z,97.65
2017-11-24T03:07:08.252Z,98.32
2017-11-24T03:07:43.440Z,97.84
2017-11-24T03:08:18.856Z,97.74
2017-11-24T03:08:53.933Z,98.41
2017-11-24T03:09:29.554Z,97.65
2017-11-24T03:10:04.534Z,98.13
2017-11-24T03:10:40.076Z,98.22
2017-11-24T03:11:15.355Z,98.79
2017-11-24T03:11:50.570Z,99.65
2017-11-24T03:12:25.953Z,99.55
2017-11-24T03:13:01.562Z,99.74
2017-11-24T03:13:37.059Z,99.99
2017-11-24T03:14:12.270Z,99.99
2017-11-24T03:14:47.651Z,99.99
2017-11-24T03:15:22.562Z,99.99
2017-11-24T03:15:57.675Z,99.99
2017-11-24T03:16:32.883Z,99.99
2017-11-24T03:17:08.172Z,99.99
2017-11-24T03:17:43.593Z,99.99
2017-11-24T03:18:19.090Z,99.99
2017-11-24T03:18:54.302Z,99.99
2017-11-24T03:19:29.694Z,99.99
2017-11-24T03:20:05.003Z,99.99
2017-11-24T03:20:40.232Z,99.99
2017-11-24T03:21:15.637Z,99.99
2017-11-24T03:21:51.019Z,99.99
2017-11-24T03:22:26.239Z,99.99
2017-11-24T03:23:01.714Z,99.99
2017-11-24T03:23:37.428Z,99.99
2017-11-24T03:24:13.566Z,99.99
2017-11-24T03:24:48.880Z,99.99
2017-11-24T03:25:24.060Z,99.99
2017-11-24T03:25:59.198Z,99.99
2017-11-24T03:26:34.279Z,99.99
2017-11-24T03:27:09.517Z,99.99
2017-11-24T03:27:44.803Z,99.99
2017-11-24T03:28:20.214Z,99.99
2017-11-24T03:28:55.207Z,99.99
2017-11-24T03:29:30.523Z,99.99
2017-11-24T03:30:05.806Z,99.99
2017-11-24T03:30:40.755Z,99.99
2017-11-24T03:31:16.037Z,99.99
2017-11-24T03:31:51.251Z,99.99
2017-11-24T03:32:26.630Z,99.99
2017-11-24T03:33:01.847Z,99.99
2017-11-24T03:33:37.423Z,99.99
2017-11-24T03:34:12.940Z,99.99
2017-11-24T03:34:48.322Z,99.99
2017-11-24T03:35:23.833Z,99.99
2017-11-24T03:35:59.453Z,99.99
2017-11-24T03:36:34.766Z,99.99
2017-11-24T03:37:10.153Z,99.99
2017-11-24T03:37:45.467Z,99.99
2017-11-24T03:38:20.750Z,99.99
2017-11-24T03:38:55.777Z,99.99
2017-11-24T03:39:31.156Z,99.99
2017-11-24T03:40:06.378Z,99.99
2017-11-24T03:40:41.591Z,99.99
2017-11-24T03:41:17.004Z,99.99
2017-11-24T03:41:52.185Z,99.99
2017-11-24T03:42:27.801Z,99.99
2017-11-24T03:43:03.084Z,99.99
2017-11-24T03:43:38.406Z,99.99
2017-11-24T03:44:13.499Z,99.99
2017-11-24T03:44:48.814Z,99.99
2017-11-24T03:45:23.886Z,99.99
2017-11-24T03:45:59.025Z,99.99
2017-11-24T03:46:34.322Z,99.99
2017-11-24T03:47:09.937Z,99.99
2017-11-24T03:47:45.217Z,99.99
2017-11-24T03:48:20.530Z,99.99
2017-11-24T03:48:55.815Z,99.99
2017-11-24T03:49:31.327Z,99.99
2017-11-24T03:50:06.612Z,99.99
2017-11-24T03:50:41.734Z,99.99
2017-11-24T03:51:17.142Z,99.99
2017-11-24T03:51:52.558Z,99.99
2017-11-24T03:52:27.637Z,99.99
2017-11-24T03:53:02.761Z,99.99
2017-11-24T03:53:38.131Z,99.99
2017-11-24T03:54:13.447Z,99.99
2017-11-24T03:54:48.931Z,99.99
2017-11-24T03:55:24.241Z,99.99
2017-11-24T03:55:59.546Z,99.99
2017-11-24T03:56:34.764Z,99.99
2017-11-24T03:57:09.851Z,99.99
2017-11-24T03:57:45.067Z,99.99
2017-11-24T03:58:20.351Z,99.99
2017-11-24T03:58:55.765Z,99.99
2017-11-24T03:59:30.953Z,99.99
2017-11-24T04:00:06.360Z,99.99
2017-11-24T04:00:41.441Z,99.88
2017-11-24T04:01:16.575Z,99.79
2017-11-24T04:01:52.159Z,99.99
2017-11-24T04:02:27.868Z,99.79
2017-11-24T04:03:03.362Z,99.88
2017-11-24T04:03:38.799Z,99.79
2017-11-24T04:04:14.181Z,99.60
2017-11-24T04:04:49.407Z,99.98
2017-11-24T04:05:24.691Z,99.88
2017-11-24T04:06:00.042Z,99.50
2017-11-24T04:06:35.519Z,99.50
2017-11-24T04:07:10.628Z,98.93
2017-11-24T04:07:45.910Z,98.93
2017-11-24T04:08:21.225Z,98.36
2017-11-24T04:08:56.610Z,97.98
2017-11-24T04:09:32.015Z,97.50
2017-11-24T04:10:07.210Z,97.41
2017-11-24T04:10:42.425Z,97.22
2017-11-24T04:11:17.821Z,96.74
2017-11-24T04:11:53.435Z,96.46
2017-11-24T04:12:28.816Z,96.36
2017-11-24T04:13:04.242Z,96.55
2017-11-24T04:13:39.337Z,96.17
2017-11-24T04:14:14.753Z,95.98
2017-11-24T04:14:50.035Z,96.26
2017-11-24T04:15:25.441Z,96.17
2017-11-24T04:16:00.630Z,95.32
2017-11-24T04:16:36.159Z,95.22
2017-11-24T04:17:11.355Z,95.51
2017-11-24T04:17:46.969Z,95.51
2017-11-24T04:18:22.165Z,95.32
2017-11-24T04:18:57.671Z,95.12
2017-11-24T04:19:32.954Z,95.32
2017-11-24T04:20:08.077Z,95.12
2017-11-24T04:20:43.354Z,94.27
2017-11-24T04:21:18.608Z,94.56
2017-11-24T04:21:53.790Z,93.89
2017-11-24T04:22:29.404Z,93.70
2017-11-24T04:23:04.700Z,93.79
2017-11-24T04:23:39.912Z,93.60
2017-11-24T04:24:15.333Z,93.79
2017-11-24T04:24:50.953Z,93.60
2017-11-24T04:25:26.238Z,93.89
2017-11-24T04:26:01.248Z,93.70
2017-11-24T04:26:36.556Z,93.60
2017-11-24T04:27:11.658Z,93.79
2017-11-24T04:27:47.040Z,93.89
2017-11-24T04:28:22.360Z,93.79
2017-11-24T04:28:57.744Z,93.79
2017-11-24T04:29:33.268Z,93.79
2017-11-24T04:30:08.441Z,93.89
2017-11-24T04:30:43.952Z,93.89
2017-11-24T04:31:19.179Z,93.51
2017-11-24T04:31:54.604Z,93.23
2017-11-24T04:32:29.891Z,93.13
2017-11-24T04:33:05.008Z,93.41
2017-11-24T04:33:40.289Z,93.23
2017-11-24T04:34:15.509Z,93.32
2017-11-24T04:34:50.683Z,92.56
2017-11-24T04:35:26.105Z,92.75
2017-11-24T04:36:01.583Z,91.80
2017-11-24T04:36:37.122Z,91.03
2017-11-24T04:37:12.407Z,90.94
2017-11-24T04:37:47.827Z,89.99
2017-11-24T04:38:22.909Z,89.51
2017-11-24T04:38:58.435Z,89.04
2017-11-24T04:39:33.840Z,89.04
2017-11-24T04:40:09.156Z,88.94
2017-11-24T04:40:44.539Z,89.61
2017-11-24T04:41:19.951Z,89.14
2017-11-24T04:41:55.356Z,88.90
2017-11-24T04:42:30.769Z,88.75
2017-11-24T04:43:06.068Z,89.04
2017-11-24T04:43:41.581Z,88.42
2017-11-24T04:44:16.671Z,88.28
2017-11-24T04:44:52.086Z,87.71
2017-11-24T04:45:27.469Z,87.42
2017-11-24T04:46:03.078Z,86.85
2017-11-24T04:46:38.392Z,86.66
2017-11-24T04:47:13.501Z,86.38
2017-11-24T04:47:49.080Z,85.52
2017-11-24T04:48:24.594Z,85.14
2017-11-24T04:48:59.878Z,84.66
2017-11-24T04:49:35.189Z,84.19
2017-11-24T04:50:10.475Z,83.33
2017-11-24T04:50:45.792Z,82.76
2017-11-24T04:51:21.175Z,82.19
2017-11-24T04:51:56.609Z,82.38
2017-11-24T04:52:31.914Z,81.90
2017-11-24T04:53:07.146Z,81.43
2017-11-24T04:53:42.852Z,81.81
2017-11-24T04:54:18.090Z,81.71
2017-11-24T04:54:53.404Z,81.24
2017-11-24T04:55:28.855Z,81.43
2017-11-24T04:56:04.143Z,80.72
2017-11-24T04:56:39.505Z,80.76
2017-11-24T04:57:14.710Z,80.19
2017-11-24T04:57:50.443Z,80.38
2017-11-24T04:58:25.753Z,80.15
2017-11-24T04:59:01.288Z,80.34
2017-11-24T04:59:36.505Z,79.72
2017-11-24T05:00:11.741Z,79.77
2017-11-24T05:00:47.347Z,79.86
2017-11-24T05:01:22.881Z,79.68
2017-11-24T05:01:58.112Z,79.49
2017-11-24T05:02:33.440Z,79.77
2017-11-24T05:03:08.643Z,79.20
2017-11-24T05:03:43.978Z,79.39
2017-11-24T05:04:19.184Z,79.01
2017-11-24T05:04:54.516Z,78.34
2017-11-24T05:05:29.928Z,78.82
2017-11-24T05:06:05.255Z,78.16
2017-11-24T05:06:40.761Z,78.25
2017-11-24T05:07:16.118Z,78.34
2017-11-24T05:07:51.532Z,77.87
2017-11-24T05:08:26.972Z,77.77
2017-11-24T05:09:02.583Z,77.49
2017-11-24T05:09:37.818Z,77.53
2017-11-24T05:10:13.125Z,77.30
2017-11-24T05:10:48.566Z,76.82
2017-11-24T05:11:24.090Z,76.63
2017-11-24T05:11:59.436Z,76.54
2017-11-24T05:12:34.737Z,76.48
2017-11-24T05:13:10.086Z,75.96
2017-11-24T05:13:45.789Z,75.87
2017-11-24T05:14:21.118Z,75.87
2017-11-24T05:14:56.322Z,75.59
2017-11-24T05:15:32.057Z,75.11
2017-11-24T05:16:07.368Z,75.40
2017-11-24T05:16:42.583Z,74.92
2017-11-24T05:17:17.805Z,75.02
2017-11-24T05:17:53.112Z,74.92
2017-11-24T05:18:28.192Z,74.73
2017-11-24T05:19:03.619Z,74.44
2017-11-24T05:19:38.906Z,74.44
2017-11-24T05:20:15.185Z,74.26
2017-11-24T05:20:50.464Z,74.07
2017-11-24T05:21:25.674Z,74.35
2017-11-24T05:22:01.081Z,74.16
2017-11-24T05:22:36.789Z,73.88
2017-11-24T05:23:12.072Z,73.69
2017-11-24T05:23:47.383Z,73.72
2017-11-24T05:24:22.570Z,72.96
2017-11-24T05:24:58.079Z,73.25
2017-11-24T05:25:32.965Z,72.67
2017-11-24T05:26:08.567Z,72.96
2017-11-24T05:26:43.885Z,72.49
2017-11-24T05:27:19.407Z,72.58
2017-11-24T05:27:54.784Z,72.67
2017-11-24T05:28:30.197Z,71.82
2017-11-24T05:29:05.444Z,72.20
2017-11-24T05:29:40.558Z,71.53
2017-11-24T05:30:15.545Z,71.44
2017-11-24T05:30:50.659Z,71.25
2017-11-24T05:31:25.942Z,71.82
2017-11-24T05:32:01.373Z,70.68
2017-11-24T05:32:36.661Z,71.06
2017-11-24T05:33:12.069Z,70.39
2017-11-24T05:33:47.556Z,70.10
2017-11-24T05:34:23.060Z,70.01
2017-11-24T05:34:58.542Z,69.73
2017-11-24T05:35:34.182Z,69.35
2017-11-24T05:36:09.346Z,69.63
2017-11-24T05:36:44.659Z,69.73
2017-11-24T05:37:20.063Z,69.15
2017-11-24T05:37:55.582Z,68.87
2017-11-24T05:38:30.977Z,68.77
2017-11-24T05:39:05.992Z,68.68
2017-11-24T05:39:41.685Z,68.49
2017-11-24T05:40:16.815Z,68.59
2017-11-24T05:40:51.998Z,68.21
2017-11-24T05:41:27.205Z,68.30
2017-11-24T05:42:02.589Z,68.11
2017-11-24T05:42:37.829Z,67.73
2017-11-24T05:43:13.221Z,67.63
2017-11-24T05:43:48.743Z,67.25
2017-11-24T05:44:23.936Z,67.35
2017-11-24T05:44:59.153Z,66.97
2017-11-24T05:45:34.638Z,67.07
2017-11-24T05:46:09.853Z,66.68
2017-11-24T05:46:45.130Z,66.97
2017-11-24T05:47:20.664Z,66.39
2017-11-24T05:47:56.148Z,66.20
2017-11-24T05:48:31.385Z,66.39
2017-11-24T05:49:06.767Z,65.73
2017-11-24T05:49:42.285Z,66.20
2017-11-24T05:50:18.188Z,65.92
2017-11-24T05:50:53.605Z,65.54
2017-11-24T05:51:28.882Z,65.54
2017-11-24T05:52:04.103Z,65.73
2017-11-24T05:52:39.505Z,64.97
2017-11-24T05:53:14.818Z,64.69
2017-11-24T05:53:50.205Z,64.69
2017-11-24T05:54:26.019Z,64.97
2017-11-24T05:55:01.005Z,64.31
2017-11-24T05:55:36.115Z,64.21
2017-11-24T05:56:11.520Z,64.11
2017-11-24T05:56:46.961Z,64.50
2017-11-24T05:57:22.459Z,63.64
2017-11-24T05:57:57.871Z,63.45
2017-11-24T05:58:32.954Z,63.92
2017-11-24T05:59:08.079Z,63.54
2017-11-24T05:59:43.498Z,63.07
2017-11-24T06:00:18.813Z,63.17
2017-11-24T06:00:54.103Z,62.78
2017-11-24T06:01:29.524Z,63.07
2017-11-24T06:02:05.104Z,62.78
2017-11-24T06:02:40.239Z,62.97
2017-11-24T06:03:15.928Z,62.78
2017-11-24T06:03:51.248Z,62.02
2017-11-24T06:04:26.875Z,62.30
2017-11-24T06:05:02.309Z,62.30
2017-11-24T06:05:37.621Z,62.49
2017-11-24T06:06:12.956Z,62.40
2017-11-24T06:06:48.169Z,62.12
2017-11-24T06:07:23.406Z,61.83
2017-11-24T06:07:58.841Z,61.74
2017-11-24T06:08:34.282Z,61.16
2017-11-24T06:09:09.886Z,61.64
2017-11-24T06:09:45.334Z,61.55
2017-11-24T06:10:20.532Z,61.45
2017-11-24T06:10:55.782Z,60.97
2017-11-24T06:11:30.872Z,60.88
2017-11-24T06:12:06.103Z,61.26
2017-11-24T06:12:41.241Z,60.88
2017-11-24T06:13:16.469Z,60.88
2017-11-24T06:13:51.799Z,60.60
2017-11-24T06:14:27.135Z,60.31
2017-11-24T06:15:02.540Z,59.93
2017-11-24T06:15:38.478Z,60.12
2017-11-24T06:16:13.779Z,60.21
2017-11-24T06:16:49.118Z,60.21
2017-11-24T06:17:24.524Z,60.12
2017-11-24T06:18:00.083Z,59.74
2017-11-24T06:18:35.503Z,59.93
2017-11-24T06:19:10.831Z,59.83
2017-11-24T06:19:46.336Z,59.36
2017-11-24T06:20:21.474Z,59.27
2017-11-24T06:20:56.805Z,59.55
2017-11-24T06:21:32.449Z,59.55
2017-11-24T06:22:08.058Z,58.88
2017-11-24T06:22:43.316Z,58.98
2017-11-24T06:23:18.930Z,59.27
2017-11-24T06:23:54.283Z,59.36
2017-11-24T06:24:30.189Z,59.27
2017-11-24T06:25:05.343Z,59.17
2017-11-24T06:25:40.551Z,58.88
2017-11-24T06:26:15.804Z,58.79
2017-11-24T06:26:51.104Z,58.98
2017-11-24T06:27:26.543Z,58.95
2017-11-24T06:28:01.875Z,58.88
2017-11-24T06:28:37.205Z,58.85
2017-11-24T06:29:12.714Z,58.79
2017-11-24T06:29:48.256Z,58.66
2017-11-24T06:30:23.536Z,58.79
2017-11-24T06:30:59.048Z,58.69
2017-11-24T06:31:34.140Z,58.18
2017-11-24T06:32:09.355Z,58.59
2017-11-24T06:32:44.668Z,58.37
2017-11-24T06:33:20.489Z,58.31
2017-11-24T06:33:55.566Z,58.37
2017-11-24T06:34:31.692Z,58.59
2017-11-24T06:35:07.073Z,58.03
2017-11-24T06:35:42.390Z,58.31
2017-11-24T06:36:18.067Z,57.84
2017-11-24T06:36:53.675Z,58.03
2017-11-24T06:37:29.067Z,58.09
2017-11-24T06:38:04.514Z,58.12
2017-11-24T06:38:40.319Z,58.28
2017-11-24T06:39:15.633Z,58.18
2017-11-24T06:39:51.115Z,58.31
2017-11-24T06:40:26.246Z,58.22
2017-11-24T06:41:01.529Z,58.09
2017-11-24T06:41:36.652Z,57.65
2017-11-24T06:42:11.941Z,57.90
2017-11-24T06:42:47.051Z,57.84
2017-11-24T06:43:22.467Z,57.62
2017-11-24T06:43:57.786Z,57.81
2017-11-24T06:44:33.168Z,58.09
2017-11-24T06:45:08.484Z,58.18
2017-11-24T06:45:43.673Z,58.18
2017-11-24T06:46:19.083Z,58.18
2017-11-24T06:46:54.471Z,58.37
2017-11-24T06:47:29.604Z,58.47
2017-11-24T06:48:04.714Z,58.09
2017-11-24T06:48:40.025Z,58.18
2017-11-24T06:49:15.314Z,58.18
2017-11-24T06:49:50.949Z,58.66
2017-11-24T06:50:26.428Z,58.47
2017-11-24T06:51:01.752Z,58.76
2017-11-24T06:51:37.232Z,58.57
2017-11-24T06:52:12.951Z,58.76
2017-11-24T06:52:47.939Z,58.28
2017-11-24T06:53:23.076Z,58.18
2017-11-24T06:53:58.466Z,58.00
2017-11-24T06:54:33.998Z,58.00
2017-11-24T06:55:09.178Z,58.00
2017-11-24T06:55:44.589Z,58.09
2017-11-24T06:56:19.777Z,57.81
2017-11-24T06:56:55.099Z,57.90
2017-11-24T06:57:30.176Z,57.90
2017-11-24T06:58:05.612Z,57.81
2017-11-24T06:58:40.895Z,58.09
2017-11-24T06:59:16.219Z,58.18
2017-11-24T06:59:51.511Z,58.28
2017-11-24T07:00:26.725Z,58.18
2017-11-24T07:01:02.204Z,58.09
2017-11-24T07:01:37.417Z,58.18
2017-11-24T07:02:12.505Z,58.18
2017-11-24T07:02:47.957Z,58.18
2017-11-24T07:03:23.269Z,58.28
2017-11-24T07:03:58.580Z,58.09
2017-11-24T07:04:33.800Z,58.00
2017-11-24T07:05:09.634Z,58.00
2017-11-24T07:05:45.143Z,58.18
2017-11-24T07:06:20.484Z,58.18
2017-11-24T07:06:56.102Z,58.09
2017-11-24T07:07:31.636Z,58.18
2017-11-24T07:08:07.054Z,58.28
2017-11-24T07:08:42.479Z,58.25
2017-11-24T07:09:17.874Z,58.25
2017-11-24T07:09:53.307Z,58.25
2017-11-24T07:10:28.916Z,57.90
2017-11-24T07:11:04.428Z,57.81
2017-11-24T07:11:40.125Z,57.78
2017-11-24T07:12:15.428Z,57.50
2017-11-24T07:12:50.918Z,57.59
2017-11-24T07:13:25.852Z,57.59
2017-11-24T07:14:01.150Z,57.87
2017-11-24T07:14:36.274Z,57.87
2017-11-24T07:15:11.749Z,57.59
2017-11-24T07:15:46.860Z,57.59
2017-11-24T07:16:22.649Z,57.87
2017-11-24T07:16:58.260Z,57.97
2017-11-24T07:17:33.147Z,57.90
2017-11-24T07:18:08.546Z,58.18
2017-11-24T07:18:43.869Z,58.00
2017-11-24T07:19:19.309Z,57.62
2017-11-24T07:19:54.594Z,57.62
2017-11-24T07:20:30.110Z,57.62
2017-11-24T07:21:05.607Z,57.90
2017-11-24T07:21:41.609Z,57.33
2017-11-24T07:22:17.083Z,57.14
2017-11-24T07:22:52.098Z,57.14
2017-11-24T07:23:27.511Z,57.43
2017-11-24T07:24:02.737Z,57.43
2017-11-24T07:24:38.423Z,57.33
2017-11-24T07:25:14.025Z,57.62
2017-11-24T07:25:49.405Z,57.33
2017-11-24T07:26:24.619Z,57.04
2017-11-24T07:26:59.923Z,57.24
2017-11-24T07:27:35.252Z,57.33
2017-11-24T07:28:10.867Z,57.33
2017-11-24T07:28:46.292Z,57.04
2017-11-24T07:29:21.744Z,56.85
2017-11-24T07:29:57.058Z,56.57
2017-11-24T07:30:32.235Z,56.48
2017-11-24T07:31:07.469Z,56.85
2017-11-24T07:31:42.952Z,56.57
2017-11-24T07:32:18.363Z,56.95
2017-11-24T07:32:53.944Z,56.95
2017-11-24T07:33:29.295Z,57.04
2017-11-24T07:34:04.660Z,56.95
2017-11-24T07:34:39.880Z,56.76
2017-11-24T07:35:15.167Z,56.67